createdAt,value
2023-09-24T00:00:03.166Z,7.75
2023-09-24T00:05:02.863Z,7.67
2023-09-24T00:10:02.564Z,7.65
2023-09-24T00:15:02.391Z,7.73
2023-09-24T00:20:03.173Z,7.75
2023-09-24T00:25:02.751Z,7.43
2023-09-24T00:30:02.504Z,7.34
2023-09-24T00:35:03.104Z,6.94
2023-09-24T00:40:02.942Z,6.72
2023-09-24T00:45:02.627Z,6.83
2023-09-24T00:50:02.328Z,6.86
2023-09-24T00:55:03.038Z,6.8
2023-09-24T01:00:03.514Z,6.57
2023-09-24T01:05:02.677Z,6.24
2023-09-24T01:10:02.510Z,6.08
2023-09-24T01:15:03.126Z,6.5
2023-09-24T01:20:02.899Z,6.61
2023-09-24T01:25:02.380Z,6.53
2023-09-24T01:30:02.450Z,6.64
2023-09-24T01:35:03.148Z,6.96
2023-09-24T01:40:02.801Z,7.21
2023-09-24T01:45:02.615Z,7.2
2023-09-24T01:50:02.206Z,7.19
2023-09-24T01:55:03.698Z,7.27
2023-09-24T02:00:02.652Z,7.39
2023-09-24T02:05:02.472Z,7.46
2023-09-24T02:10:03.005Z,7.43
2023-09-24T02:15:02.746Z,7.36
2023-09-24T02:20:02.923Z,7.25
2023-09-24T02:25:02.716Z,7.33
2023-09-24T02:30:02.564Z,7.36
2023-09-24T02:35:03.130Z,7.42
2023-09-24T02:40:03.068Z,7.53
2023-09-24T02:45:03.070Z,7.54
2023-09-24T02:50:02.757Z,7.73
2023-09-24T02:55:03.509Z,7.77
2023-09-24T03:00:03.270Z,7.76
2023-09-24T03:05:02.836Z,7.67
2023-09-24T03:10:02.544Z,7.69
2023-09-24T03:15:02.337Z,7.41
2023-09-24T03:20:03.294Z,7.61
2023-09-24T03:25:02.716Z,7.59
2023-09-24T03:30:02.709Z,7.57
2023-09-24T03:35:02.391Z,7.83
2023-09-24T03:40:03.084Z,8.04
2023-09-24T03:45:02.876Z,8.08
2023-09-24T03:50:02.462Z,8.25
2023-09-24T03:55:03.275Z,8.31
2023-09-24T04:00:03.032Z,8.37
2023-09-24T04:05:02.713Z,8.49
2023-09-24T04:10:02.421Z,8.57
2023-09-24T04:15:02.372Z,8.64
2023-09-24T04:20:02.344Z,8.67
2023-09-24T04:25:03.091Z,8.62
2023-09-24T04:30:02.777Z,8.6
2023-09-24T04:35:02.358Z,8.65
2023-09-24T04:40:03.103Z,8.62
2023-09-24T04:45:02.935Z,8.65
2023-09-24T04:50:02.665Z,8.81
2023-09-24T04:55:03.513Z,8.93
2023-09-24T05:00:03.159Z,9.03
2023-09-24T05:05:02.893Z,9.15
2023-09-24T05:10:02.473Z,9.24
2023-09-24T05:15:02.271Z,9.36
2023-09-24T05:20:03.031Z,9.54
2023-09-24T05:25:02.854Z,9.73
2023-09-24T05:30:02.617Z,9.85
2023-09-24T05:35:02.223Z,10.15
2023-09-24T05:40:03.148Z,10.72
2023-09-24T05:45:03.000Z,10.88
2023-09-24T05:50:02.494Z,11.04
2023-09-24T05:55:02.895Z,11.16
2023-09-24T06:00:03.224Z,11.28
2023-09-24T06:05:02.601Z,11.45
2023-09-24T06:10:02.331Z,11.61
2023-09-24T06:15:03.074Z,11.8
2023-09-24T06:20:02.753Z,11.9
2023-09-24T06:25:02.463Z,11.94
2023-09-24T06:30:03.203Z,12.23
2023-09-24T06:35:02.838Z,12.24
2023-09-24T06:40:02.565Z,12.53
2023-09-24T06:45:02.310Z,12.42
2023-09-24T06:50:02.857Z,12.39
2023-09-24T06:55:03.777Z,12.55
2023-09-24T07:00:02.277Z,12.61
2023-09-24T07:05:02.998Z,12.66
2023-09-24T07:10:02.773Z,12.64
2023-09-24T07:15:02.522Z,12.7
2023-09-24T07:20:02.201Z,12.86
2023-09-24T07:25:02.957Z,12.88
2023-09-24T07:30:02.772Z,12.89
2023-09-24T07:35:02.445Z,12.99
2023-09-24T07:40:03.169Z,13.17
2023-09-24T07:45:03.005Z,13.18
2023-09-24T07:50:02.528Z,13.27
2023-09-24T07:55:03.483Z,13.47
2023-09-24T08:00:02.980Z,13.34
2023-09-24T08:05:02.722Z,13.59
2023-09-24T08:10:02.670Z,13.63
2023-09-24T08:15:03.199Z,13.8
2023-09-24T08:20:02.995Z,13.91
2023-09-24T08:25:02.697Z,13.98
2023-09-24T08:30:02.577Z,13.81
2023-09-24T08:35:03.116Z,14.16
2023-09-24T08:40:02.850Z,14.36
2023-09-24T08:45:02.702Z,14.26
2023-09-24T08:50:02.211Z,14.91
2023-09-24T08:55:03.226Z,15.06
2023-09-24T09:00:03.033Z,15.57
2023-09-24T09:05:02.691Z,15.47
2023-09-24T09:10:02.546Z,16.19
2023-09-24T09:15:02.359Z,16.95
2023-09-24T09:20:02.371Z,15.83
2023-09-24T09:25:03.091Z,15.59
2023-09-24T09:30:02.843Z,15.43
2023-09-24T09:35:02.458Z,16.67
2023-09-24T09:40:02.241Z,17.54
2023-09-24T09:45:03.240Z,17.06
2023-09-24T09:50:02.631Z,18.02
2023-09-24T09:55:03.633Z,17.09
2023-09-24T10:00:03.209Z,16.29
2023-09-24T10:05:02.817Z,16.47
2023-09-24T10:10:02.547Z,15.88
2023-09-24T10:15:02.317Z,16.9
2023-09-24T10:20:03.116Z,17.09
2023-09-24T10:25:02.857Z,15.74
2023-09-24T10:30:02.692Z,15.88
2023-09-24T10:35:02.407Z,18.36
2023-09-24T10:40:02.979Z,19.42
2023-09-24T10:45:02.911Z,19.01
2023-09-24T10:50:02.656Z,18.61
2023-09-24T10:55:03.721Z,18.86
2023-09-24T11:00:02.524Z,20.78
2023-09-24T11:05:02.360Z,17.16
2023-09-24T11:10:03.131Z,18.21
2023-09-24T11:20:02.977Z,21.13
2023-09-24T11:25:02.805Z,22.29
2023-09-24T11:30:02.505Z,19.63
2023-09-24T11:35:03.126Z,18.22
2023-09-24T11:40:02.799Z,20.31
2023-09-24T11:45:02.532Z,19.25
2023-09-24T11:50:02.576Z,20.27
2023-09-24T11:55:03.518Z,23.44
2023-09-24T12:00:03.090Z,21.47
2023-09-24T12:05:02.838Z,22.13
2023-09-24T12:10:02.601Z,19.62
2023-09-24T12:15:02.367Z,19.24
2023-09-24T12:20:02.263Z,18.54
2023-09-24T12:25:02.945Z,18.71
2023-09-24T12:30:02.747Z,18.32
2023-09-24T12:35:02.420Z,18.3
2023-09-24T12:40:03.136Z,18.16
2023-09-24T12:45:02.968Z,17.84
2023-09-24T12:50:02.700Z,17.48
2023-09-24T12:55:03.865Z,17.83
2023-09-24T13:00:02.909Z,17.89
2023-09-24T13:05:02.444Z,18.14
2023-09-24T13:10:02.988Z,18.27
2023-09-24T13:15:02.777Z,17.86
2023-09-24T13:20:02.741Z,17.95
2023-09-24T13:25:02.558Z,18.18
2023-09-24T13:30:03.208Z,18.15
2023-09-24T13:35:03.137Z,18.16
2023-09-24T13:40:02.870Z,17.92
2023-09-24T13:45:02.675Z,17.79
2023-09-24T13:50:02.188Z,17.79
2023-09-24T13:55:03.635Z,17.84
2023-09-24T14:00:02.597Z,18.05
2023-09-24T14:05:02.328Z,18.21
2023-09-24T14:10:02.993Z,18.32
2023-09-24T14:15:02.755Z,19.09
2023-09-24T14:20:02.389Z,20.4
2023-09-24T14:25:03.193Z,22.3
2023-09-24T14:30:02.941Z,22.53
2023-09-24T14:35:02.554Z,21.9
2023-09-24T14:40:02.225Z,22.19
2023-09-24T14:45:03.170Z,22.17
2023-09-24T14:50:02.607Z,22.31
2023-09-24T14:55:03.158Z,22.07
2023-09-24T15:00:03.075Z,21.1
2023-09-24T15:05:02.818Z,21.41
2023-09-24T15:10:02.512Z,21.3
2023-09-24T15:15:02.254Z,20.58
2023-09-24T15:20:02.939Z,21.35
2023-09-24T15:25:02.695Z,20.56
2023-09-24T15:30:02.501Z,20.9
2023-09-24T15:35:03.249Z,21.05
2023-09-24T15:40:02.816Z,21.45
2023-09-24T15:45:02.567Z,20.42
2023-09-24T15:50:02.286Z,20.28
2023-09-24T15:55:03.581Z,21.25
2023-09-24T16:00:02.756Z,21.67
2023-09-24T16:05:02.440Z,21.57
2023-09-24T16:10:03.128Z,21.22
2023-09-24T16:15:02.983Z,20.94
2023-09-24T16:20:02.671Z,21.12
2023-09-24T16:25:02.450Z,20.71
2023-09-24T16:30:03.509Z,19.25
2023-09-24T16:35:02.842Z,17.73
2023-09-24T16:40:02.849Z,16.92
2023-09-24T16:45:02.701Z,16.34
2023-09-24T16:50:02.368Z,15.52
2023-09-24T16:55:04.357Z,14.6
2023-09-24T17:00:03.001Z,13.96
2023-09-24T17:05:02.668Z,13.26
2023-09-24T17:10:03.534Z,12.6
2023-09-24T17:15:03.245Z,12.94
2023-09-24T17:20:02.917Z,12.76
2023-09-24T17:25:02.623Z,12.49
2023-09-24T17:30:02.366Z,13.06
2023-09-24T17:35:02.903Z,12.3
2023-09-24T17:40:02.618Z,11.94
2023-09-24T17:45:02.363Z,12.1
2023-09-24T17:50:02.387Z,11.92
2023-09-24T17:55:03.843Z,11.06
2023-09-24T18:00:02.796Z,11.37
2023-09-24T18:05:02.407Z,12.16
2023-09-24T18:10:02.229Z,12.16
2023-09-24T18:15:03.131Z,11.8
2023-09-24T18:20:02.744Z,11.68
2023-09-24T18:25:02.482Z,11.66
2023-09-24T18:30:03.206Z,10.98
2023-09-24T18:35:02.902Z,10.51
2023-09-24T18:40:02.824Z,10.18
2023-09-24T18:45:02.394Z,8.76
2023-09-24T18:50:02.444Z,8.66
2023-09-24T18:55:03.943Z,8.84
2023-09-24T19:00:02.880Z,9.06
2023-09-24T19:05:02.632Z,10.66
2023-09-24T19:10:02.732Z,11.32
2023-09-24T19:15:02.510Z,11.47
2023-09-24T19:20:02.151Z,11.22
2023-09-24T19:25:02.907Z,10.89
2023-09-24T19:30:02.709Z,10.17
2023-09-24T19:35:02.374Z,9.65
2023-09-24T19:40:03.059Z,10.04
2023-09-24T19:45:02.880Z,10.47
2023-09-24T19:50:02.470Z,11
2023-09-24T19:55:03.251Z,11.16
2023-09-24T20:00:03.133Z,10.95
2023-09-24T20:05:02.643Z,10.75
2023-09-24T20:10:02.332Z,10.59
2023-09-24T20:15:02.627Z,10.76
2023-09-24T20:20:03.052Z,10.82
2023-09-24T20:25:02.691Z,10.82
2023-09-24T20:30:02.430Z,10.64
2023-09-24T20:35:03.153Z,10.57
2023-09-24T20:40:02.824Z,10.53
2023-09-24T20:45:02.573Z,10.44
2023-09-24T20:50:02.211Z,10.37
2023-09-24T20:55:04.161Z,10.26
2023-09-24T21:00:02.856Z,9.92
2023-09-24T21:05:02.304Z,10.08
2023-09-24T21:10:03.112Z,10.22
2023-09-24T21:15:02.863Z,10.4
2023-09-24T21:20:02.509Z,10.24
2023-09-24T21:25:03.160Z,10.15
2023-09-24T21:30:02.895Z,10.04
2023-09-24T21:35:02.548Z,10.12
2023-09-24T21:40:02.280Z,9.95
2023-09-24T21:45:03.097Z,9.93
2023-09-24T21:50:02.849Z,10.18
2023-09-24T21:55:03.847Z,10.26
2023-09-24T22:00:02.457Z,10.37
2023-09-24T22:05:03.142Z,10.26
2023-09-24T22:10:02.949Z,9.98
2023-09-24T22:15:02.494Z,9.66
2023-09-24T22:20:02.162Z,9.1
2023-09-24T22:25:02.900Z,8.3
2023-09-24T22:30:02.707Z,8.15
2023-09-24T22:35:02.520Z,7.56
2023-09-24T22:40:03.061Z,7.45
2023-09-24T22:45:02.758Z,7.56
2023-09-24T22:50:02.533Z,8.32
2023-09-24T22:55:03.041Z,8.64
2023-09-24T23:00:02.937Z,8.49
2023-09-24T23:05:02.532Z,8.56
2023-09-24T23:10:02.332Z,8.92
2023-09-24T23:15:03.081Z,9.03
2023-09-24T23:20:03.089Z,8.99
2023-09-24T23:25:02.766Z,9.05
2023-09-24T23:30:02.613Z,9.09
2023-09-24T23:35:02.197Z,9.16
2023-09-24T23:40:02.907Z,9.27
2023-09-24T23:45:02.716Z,9.3
2023-09-24T23:50:02.372Z,9.28
2023-09-24T23:55:03.637Z,9.34
